sensor_id;sensor_type;location;lat;lon;timestamp;pressure;altitude;pressure_sealevel;temperature
14851;BMP180;7517;48.400;11.770;2022-11-20T00:01:30;95780.00;;;11.00
14851;BMP180;7517;48.400;11.770;2022-11-20T00:03:59;95773.00;;;11.00
14851;BMP180;7517;48.400;11.770;2022-11-20T00:06:27;95784.00;;;11.00
14851;BMP180;7517;48.400;11.770;2022-11-20T00:08:58;95785.00;;;11.00
14851;BMP180;7517;48.400;11.770;2022-11-20T00:11:28;95786.00;;;11.10
14851;BMP180;7517;48.400;11.770;2022-11-20T00:13:58;95782.00;;;11.10
14851;BMP180;7517;48.400;11.770;2022-11-20T00:16:28;95787.00;;;11.10
14851;BMP180;7517;48.400;11.770;2022-11-20T00:18:56;95791.00;;;11.00
14851;BMP180;7517;48.400;11.770;2022-11-20T00:21:25;95799.00;;;11.00
14851;BMP180;7517;48.400;11.770;2022-11-20T00:23:56;95789.00;;;11.00
14851;BMP180;7517;48.400;11.770;2022-11-20T00:26:26;95796.00;;;11.00
14851;BMP180;7517;48.400;11.770;2022-11-20T00:28:56;95790.00;;;11.00
14851;BMP180;7517;48.400;11.770;2022-11-20T00:31:23;95798.00;;;11.00
14851;BMP180;7517;48.400;11.770;2022-11-20T00:33:51;95793.00;;;11.00
14851;BMP180;7517;48.400;11.770;2022-11-20T00:36:21;95795.00;;;11.00
14851;BMP180;7517;48.400;11.770;2022-11-20T00:38:52;95799.00;;;11.00
14851;BMP180;7517;48.400;11.770;2022-11-20T00:41:22;95801.00;;;11.00
14851;BMP180;7517;48.400;11.770;2022-11-20T00:43:50;95794.00;;;11.00
14851;BMP180;7517;48.400;11.770;2022-11-20T00:46:21;95802.00;;;11.00
14851;BMP180;7517;48.400;11.770;2022-11-20T00:48:48;95796.00;;;11.00
14851;BMP180;7517;48.400;11.770;2022-11-20T00:51:18;95787.00;;;11.00
14851;BMP180;7517;48.400;11.770;2022-11-20T00:53:46;95794.00;;;11.00
14851;BMP180;7517;48.400;11.770;2022-11-20T00:56:16;95796.00;;;10.90
14851;BMP180;7517;48.400;11.770;2022-11-20T00:58:48;95804.00;;;11.00
14851;BMP180;7517;48.400;11.770;2022-11-20T01:01:17;95801.00;;;11.00
14851;BMP180;7517;48.400;11.770;2022-11-20T01:03:47;95804.00;;;10.90
14851;BMP180;7517;48.400;11.770;2022-11-20T01:06:18;95807.00;;;11.00
14851;BMP180;7517;48.400;11.770;2022-11-20T01:08:46;95809.00;;;11.00
14851;BMP180;7517;48.400;11.770;2022-11-20T01:11:16;95811.00;;;11.00
14851;BMP180;7517;48.400;11.770;2022-11-20T01:13:46;95815.00;;;11.00
14851;BMP180;7517;48.400;11.770;2022-11-20T01:16:16;95818.00;;;11.00
14851;BMP180;7517;48.400;11.770;2022-11-20T01:18:47;95823.00;;;11.00
14851;BMP180;7517;48.400;11.770;2022-11-20T01:21:17;95827.00;;;11.00
14851;BMP180;7517;48.400;11.770;2022-11-20T01:23:45;95819.00;;;11.00
14851;BMP180;7517;48.400;11.770;2022-11-20T01:26:15;95827.00;;;11.00
14851;BMP180;7517;48.400;11.770;2022-11-20T01:28:44;95830.00;;;11.00
14851;BMP180;7517;48.400;11.770;2022-11-20T01:31:13;95831.00;;;11.10
14851;BMP180;7517;48.400;11.770;2022-11-20T01:33:43;95830.00;;;11.10
14851;BMP180;7517;48.400;11.770;2022-11-20T01:36:12;95825.00;;;11.10
14851;BMP180;7517;48.400;11.770;2022-11-20T01:38:39;95824.00;;;11.10
14851;BMP180;7517;48.400;11.770;2022-11-20T01:41:08;95832.00;;;11.10
14851;BMP180;7517;48.400;11.770;2022-11-20T01:43:36;95838.00;;;11.10
14851;BMP180;7517;48.400;11.770;2022-11-20T01:46:14;95838.00;;;11.10
14851;BMP180;7517;48.400;11.770;2022-11-20T01:48:49;95834.00;;;11.10
14851;BMP180;7517;48.400;11.770;2022-11-20T01:51:26;95832.00;;;11.10
14851;BMP180;7517;48.400;11.770;2022-11-20T01:53:59;95833.00;;;11.20
14851;BMP180;7517;48.400;11.770;2022-11-20T01:56:28;95836.00;;;11.20
14851;BMP180;7517;48.400;11.770;2022-11-20T01:59:01;95833.00;;;11.20
14851;BMP180;7517;48.400;11.770;2022-11-20T02:01:32;95831.00;;;11.20
14851;BMP180;7517;48.400;11.770;2022-11-20T02:04:00;95832.00;;;11.20
14851;BMP180;7517;48.400;11.770;2022-11-20T02:06:31;95831.00;;;11.20
14851;BMP180;7517;48.400;11.770;2022-11-20T02:08:59;95835.00;;;11.20
14851;BMP180;7517;48.400;11.770;2022-11-20T02:11:29;95830.00;;;11.20
14851;BMP180;7517;48.400;11.770;2022-11-20T02:13:57;95836.00;;;11.20
14851;BMP180;7517;48.400;11.770;2022-11-20T02:16:30;95830.00;;;11.20
14851;BMP180;7517;48.400;11.770;2022-11-20T02:19:02;95837.00;;;11.20
14851;BMP180;7517;48.400;11.770;2022-11-20T02:21:36;95837.00;;;11.20
14851;BMP180;7517;48.400;11.770;2022-11-20T02:24:14;95838.00;;;11.20
14851;BMP180;7517;48.400;11.770;2022-11-20T02:26:48;95836.00;;;11.20
14851;BMP180;7517;48.400;11.770;2022-11-20T02:29:23;95838.00;;;11.20
14851;BMP180;7517;48.400;11.770;2022-11-20T02:31:55;95837.00;;;11.20
14851;BMP180;7517;48.400;11.770;2022-11-20T02:34:23;95839.00;;;11.20
14851;BMP180;7517;48.400;11.770;2022-11-20T02:36:52;95832.00;;;11.10
14851;BMP180;7517;48.400;11.770;2022-11-20T02:39:25;95835.00;;;11.10
14851;BMP180;7517;48.400;11.770;2022-11-20T02:41:56;95835.00;;;11.10
14851;BMP180;7517;48.400;11.770;2022-11-20T02:44:23;95827.00;;;11.10
14851;BMP180;7517;48.400;11.770;2022-11-20T02:46:51;95823.00;;;11.10
14851;BMP180;7517;48.400;11.770;2022-11-20T02:49:18;95831.00;;;11.10
14851;BMP180;7517;48.400;11.770;2022-11-20T02:51:45;95822.00;;;11.00
14851;BMP180;7517;48.400;11.770;2022-11-20T02:54:12;95826.00;;;11.00
14851;BMP180;7517;48.400;11.770;2022-11-20T02:56:41;95825.00;;;11.00
14851;BMP180;7517;48.400;11.770;2022-11-20T02:59:08;95821.00;;;11.00
14851;BMP180;7517;48.400;11.770;2022-11-20T03:01:36;95818.00;;;10.90
14851;BMP180;7517;48.400;11.770;2022-11-20T03:04:03;95829.00;;;10.90
14851;BMP180;7517;48.400;11.770;2022-11-20T03:06:31;95817.00;;;10.90
14851;BMP180;7517;48.400;11.770;2022-11-20T03:08:59;95825.00;;;10.90
14851;BMP180;7517;48.400;11.770;2022-11-20T03:11:26;95815.00;;;10.90
14851;BMP180;7517;48.400;11.770;2022-11-20T03:13:54;95819.00;;;10.80
14851;BMP180;7517;48.400;11.770;2022-11-20T03:16:23;95823.00;;;10.80
14851;BMP180;7517;48.400;11.770;2022-11-20T03:18:52;95826.00;;;10.80
14851;BMP180;7517;48.400;11.770;2022-11-20T03:21:19;95823.00;;;10.80
14851;BMP180;7517;48.400;11.770;2022-11-20T03:23:47;95827.00;;;10.80
14851;BMP180;7517;48.400;11.770;2022-11-20T03:26:17;95820.00;;;10.80
14851;BMP180;7517;48.400;11.770;2022-11-20T03:28:47;95821.00;;;10.80
14851;BMP180;7517;48.400;11.770;2022-11-20T03:31:18;95831.00;;;10.80
14851;BMP180;7517;48.400;11.770;2022-11-20T03:33:48;95826.00;;;10.80
14851;BMP180;7517;48.400;11.770;2022-11-20T03:36:18;95827.00;;;10.80
14851;BMP180;7517;48.400;11.770;2022-11-20T03:38:46;95819.00;;;10.80
14851;BMP180;7517;48.400;11.770;2022-11-20T03:41:16;95824.00;;;10.80
14851;BMP180;7517;48.400;11.770;2022-11-20T03:43:48;95822.00;;;10.80
14851;BMP180;7517;48.400;11.770;2022-11-20T03:46:17;95822.00;;;10.70
14851;BMP180;7517;48.400;11.770;2022-11-20T03:48:45;95826.00;;;10.70
14851;BMP180;7517;48.400;11.770;2022-11-20T03:51:15;95822.00;;;10.70
14851;BMP180;7517;48.400;11.770;2022-11-20T03:53:46;95829.00;;;10.70
14851;BMP180;7517;48.400;11.770;2022-11-20T03:56:16;95823.00;;;10.70
14851;BMP180;7517;48.400;11.770;2022-11-20T03:58:44;95825.00;;;10.70
14851;BMP180;7517;48.400;11.770;2022-11-20T04:01:14;95826.00;;;10.70
14851;BMP180;7517;48.400;11.770;2022-11-20T04:03:44;95826.00;;;10.70
14851;BMP180;7517;48.400;11.770;2022-11-20T04:06:15;95824.00;;;10.70
14851;BMP180;7517;48.400;11.770;2022-11-20T04:08:42;95826.00;;;10.70
14851;BMP180;7517;48.400;11.770;2022-11-20T04:11:12;95831.00;;;10.70
14851;BMP180;7517;48.400;11.770;2022-11-20T04:13:40;95834.00;;;10.70
14851;BMP180;7517;48.400;11.770;2022-11-20T04:16:09;95826.00;;;10.70
14851;BMP180;7517;48.400;11.770;2022-11-20T04:18:36;95831.00;;;10.70
14851;BMP180;7517;48.400;11.770;2022-11-20T04:21:06;95828.00;;;10.70
14851;BMP180;7517;48.400;11.770;2022-11-20T04:23:33;95826.00;;;10.70
14851;BMP180;7517;48.400;11.770;2022-11-20T04:26:03;95827.00;;;10.70
14851;BMP180;7517;48.400;11.770;2022-11-20T04:28:30;95829.00;;;10.70
14851;BMP180;7517;48.400;11.770;2022-11-20T04:31:06;95822.00;;;10.70
14851;BMP180;7517;48.400;11.770;2022-11-20T04:33:35;95817.00;;;10.70
14851;BMP180;7517;48.400;11.770;2022-11-20T04:36:06;95821.00;;;10.70
14851;BMP180;7517;48.400;11.770;2022-11-20T04:38:34;95813.00;;;10.70
14851;BMP180;7517;48.400;11.770;2022-11-20T04:41:05;95818.00;;;10.70
14851;BMP180;7517;48.400;11.770;2022-11-20T04:43:34;95818.00;;;10.70
14851;BMP180;7517;48.400;11.770;2022-11-20T04:46:01;95821.00;;;10.70
14851;BMP180;7517;48.400;11.770;2022-11-20T04:48:29;95830.00;;;10.70
14851;BMP180;7517;48.400;11.770;2022-11-20T04:50:57;95825.00;;;10.70
14851;BMP180;7517;48.400;11.770;2022-11-20T04:53:25;95822.00;;;10.70
14851;BMP180;7517;48.400;11.770;2022-11-20T04:56:00;95832.00;;;10.70
14851;BMP180;7517;48.400;11.770;2022-11-20T04:58:27;95824.00;;;10.70
14851;BMP180;7517;48.400;11.770;2022-11-20T05:01:01;95832.00;;;10.70
14851;BMP180;7517;48.400;11.770;2022-11-20T05:03:30;95831.00;;;10.70
14851;BMP180;7517;48.400;11.770;2022-11-20T05:06:00;95819.00;;;10.70
14851;BMP180;7517;48.400;11.770;2022-11-20T05:08:29;95831.00;;;10.70
14851;BMP180;7517;48.400;11.770;2022-11-20T05:11:01;95829.00;;;10.70
14851;BMP180;7517;48.400;11.770;2022-11-20T05:13:28;95837.00;;;10.70
14851;BMP180;7517;48.400;11.770;2022-11-20T05:16:01;95829.00;;;10.70
14851;BMP180;7517;48.400;11.770;2022-11-20T05:18:28;95835.00;;;10.70
14851;BMP180;7517;48.400;11.770;2022-11-20T05:20:56;95833.00;;;10.70
14851;BMP180;7517;48.400;11.770;2022-11-20T05:23:23;95843.00;;;10.70
14851;BMP180;7517;48.400;11.770;2022-11-20T05:25:54;95836.00;;;10.70
14851;BMP180;7517;48.400;11.770;2022-11-20T05:28:22;95846.00;;;10.70
14851;BMP180;7517;48.400;11.770;2022-11-20T05:30:50;95840.00;;;10.70
14851;BMP180;7517;48.400;11.770;2022-11-20T05:33:18;95834.00;;;10.70
14851;BMP180;7517;48.400;11.770;2022-11-20T05:35:48;95832.00;;;10.70
14851;BMP180;7517;48.400;11.770;2022-11-20T05:38:15;95829.00;;;10.70
14851;BMP180;7517;48.400;11.770;2022-11-20T05:40:42;95829.00;;;10.70
14851;BMP180;7517;48.400;11.770;2022-11-20T05:43:11;95826.00;;;10.70
14851;BMP180;7517;48.400;11.770;2022-11-20T05:45:38;95830.00;;;10.70
14851;BMP180;7517;48.400;11.770;2022-11-20T05:48:05;95830.00;;;10.70
14851;BMP180;7517;48.400;11.770;2022-11-20T05:50:33;95833.00;;;10.70
14851;BMP180;7517;48.400;11.770;2022-11-20T05:53:00;95830.00;;;10.70
14851;BMP180;7517;48.400;11.770;2022-11-20T05:55:28;95834.00;;;10.70
14851;BMP180;7517;48.400;11.770;2022-11-20T05:57:55;95843.00;;;10.70
14851;BMP180;7517;48.400;11.770;2022-11-20T06:00:23;95838.00;;;10.70
14851;BMP180;7517;48.400;11.770;2022-11-20T06:02:51;95844.00;;;10.70
14851;BMP180;7517;48.400;11.770;2022-11-20T06:05:18;95849.00;;;10.70
14851;BMP180;7517;48.400;11.770;2022-11-20T06:07:45;95847.00;;;10.70
14851;BMP180;7517;48.400;11.770;2022-11-20T06:10:12;95847.00;;;10.70
14851;BMP180;7517;48.400;11.770;2022-11-20T06:12:39;95851.00;;;10.70
14851;BMP180;7517;48.400;11.770;2022-11-20T06:15:08;95849.00;;;10.70
14851;BMP180;7517;48.400;11.770;2022-11-20T06:17:37;95861.00;;;10.70
14851;BMP180;7517;48.400;11.770;2022-11-20T06:20:06;95858.00;;;10.60
14851;BMP180;7517;48.400;11.770;2022-11-20T06:22:33;95867.00;;;10.60
14851;BMP180;7517;48.400;11.770;2022-11-20T06:25:00;95863.00;;;10.60
14851;BMP180;7517;48.400;11.770;2022-11-20T06:27:27;95867.00;;;10.60
14851;BMP180;7517;48.400;11.770;2022-11-20T06:29:54;95869.00;;;10.60
14851;BMP180;7517;48.400;11.770;2022-11-20T06:32:21;95870.00;;;10.60
14851;BMP180;7517;48.400;11.770;2022-11-20T06:34:50;95866.00;;;10.60
14851;BMP180;7517;48.400;11.770;2022-11-20T06:37:17;95872.00;;;10.60
14851;BMP180;7517;48.400;11.770;2022-11-20T06:39:45;95869.00;;;10.60
14851;BMP180;7517;48.400;11.770;2022-11-20T06:42:12;95876.00;;;10.60
14851;BMP180;7517;48.400;11.770;2022-11-20T06:44:39;95874.00;;;10.60
14851;BMP180;7517;48.400;11.770;2022-11-20T06:47:07;95879.00;;;10.70
14851;BMP180;7517;48.400;11.770;2022-11-20T06:49:34;95883.00;;;10.70
14851;BMP180;7517;48.400;11.770;2022-11-20T06:52:04;95881.00;;;10.70
14851;BMP180;7517;48.400;11.770;2022-11-20T06:54:31;95882.00;;;10.80
14851;BMP180;7517;48.400;11.770;2022-11-20T06:56:58;95888.00;;;10.80
14851;BMP180;7517;48.400;11.770;2022-11-20T06:59:26;95898.00;;;10.80
14851;BMP180;7517;48.400;11.770;2022-11-20T07:01:53;95891.00;;;10.80
14851;BMP180;7517;48.400;11.770;2022-11-20T07:04:20;95887.00;;;10.80
14851;BMP180;7517;48.400;11.770;2022-11-20T07:06:48;95892.00;;;10.80
14851;BMP180;7517;48.400;11.770;2022-11-20T07:09:17;95895.00;;;10.80
14851;BMP180;7517;48.400;11.770;2022-11-20T07:11:44;95895.00;;;10.80
14851;BMP180;7517;48.400;11.770;2022-11-20T07:14:12;95893.00;;;10.80
14851;BMP180;7517;48.400;11.770;2022-11-20T07:16:39;95895.00;;;10.80
14851;BMP180;7517;48.400;11.770;2022-11-20T07:19:06;95900.00;;;10.80
14851;BMP180;7517;48.400;11.770;2022-11-20T07:21:34;95902.00;;;10.90
14851;BMP180;7517;48.400;11.770;2022-11-20T07:24:01;95902.00;;;10.90
14851;BMP180;7517;48.400;11.770;2022-11-20T07:26:30;95901.00;;;10.90
14851;BMP180;7517;48.400;11.770;2022-11-20T07:28:57;95897.00;;;10.90
14851;BMP180;7517;48.400;11.770;2022-11-20T07:31:24;95896.00;;;10.90
14851;BMP180;7517;48.400;11.770;2022-11-20T07:33:51;95907.00;;;10.90
14851;BMP180;7517;48.400;11.770;2022-11-20T07:36:18;95899.00;;;10.90
14851;BMP180;7517;48.400;11.770;2022-11-20T07:38:46;95902.00;;;10.90
14851;BMP180;7517;48.400;11.770;2022-11-20T07:41:13;95895.00;;;10.90
14851;BMP180;7517;48.400;11.770;2022-11-20T07:43:41;95905.00;;;11.00
14851;BMP180;7517;48.400;11.770;2022-11-20T07:46:09;95900.00;;;11.00
14851;BMP180;7517;48.400;11.770;2022-11-20T07:48:36;95906.00;;;11.00
14851;BMP180;7517;48.400;11.770;2022-11-20T07:51:03;95906.00;;;11.00
14851;BMP180;7517;48.400;11.770;2022-11-20T07:53:31;95914.00;;;11.00
14851;BMP180;7517;48.400;11.770;2022-11-20T07:56:00;95913.00;;;11.00
14851;BMP180;7517;48.400;11.770;2022-11-20T07:58:29;95906.00;;;11.00
14851;BMP180;7517;48.400;11.770;2022-11-20T08:01:03;95896.00;;;11.00
14851;BMP180;7517;48.400;11.770;2022-11-20T08:03:30;95901.00;;;11.00
14851;BMP180;7517;48.400;11.770;2022-11-20T08:05:59;95894.00;;;11.00
14851;BMP180;7517;48.400;11.770;2022-11-20T08:08:27;95903.00;;;11.00
14851;BMP180;7517;48.400;11.770;2022-11-20T08:10:56;95906.00;;;11.00
14851;BMP180;7517;48.400;11.770;2022-11-20T08:13:44;95909.00;;;11.10
14851;BMP180;7517;48.400;11.770;2022-11-20T08:16:31;95909.00;;;11.10
14851;BMP180;7517;48.400;11.770;2022-11-20T08:18:58;95898.00;;;11.10
14851;BMP180;7517;48.400;11.770;2022-11-20T08:21:25;95897.00;;;11.10
14851;BMP180;7517;48.400;11.770;2022-11-20T08:23:52;95906.00;;;11.20
14851;BMP180;7517;48.400;11.770;2022-11-20T08:26:21;95900.00;;;11.10
14851;BMP180;7517;48.400;11.770;2022-11-20T08:28:48;95908.00;;;11.10
14851;BMP180;7517;48.400;11.770;2022-11-20T08:31:15;95906.00;;;11.20
14851;BMP180;7517;48.400;11.770;2022-11-20T08:33:44;95904.00;;;11.20
14851;BMP180;7517;48.400;11.770;2022-11-20T08:36:11;95902.00;;;11.20
14851;BMP180;7517;48.400;11.770;2022-11-20T08:38:38;95905.00;;;11.30
14851;BMP180;7517;48.400;11.770;2022-11-20T08:41:06;95911.00;;;11.30
14851;BMP180;7517;48.400;11.770;2022-11-20T08:43:55;95912.00;;;11.40
14851;BMP180;7517;48.400;11.770;2022-11-20T08:46:24;95905.00;;;11.40
14851;BMP180;7517;48.400;11.770;2022-11-20T08:48:52;95899.00;;;11.40
14851;BMP180;7517;48.400;11.770;2022-11-20T08:51:20;95910.00;;;11.40
14851;BMP180;7517;48.400;11.770;2022-11-20T08:53:47;95902.00;;;11.40
14851;BMP180;7517;48.400;11.770;2022-11-20T08:56:16;95911.00;;;11.40
14851;BMP180;7517;48.400;11.770;2022-11-20T08:58:43;95913.00;;;11.40
14851;BMP180;7517;48.400;11.770;2022-11-20T09:01:11;95914.00;;;11.40
14851;BMP180;7517;48.400;11.770;2022-11-20T09:03:38;95907.00;;;11.40
14851;BMP180;7517;48.400;11.770;2022-11-20T09:06:07;95894.00;;;11.40
14851;BMP180;7517;48.400;11.770;2022-11-20T09:08:35;95899.00;;;11.50
14851;BMP180;7517;48.400;11.770;2022-11-20T09:11:03;95908.00;;;11.50
14851;BMP180;7517;48.400;11.770;2022-11-20T09:13:34;95899.00;;;11.50
14851;BMP180;7517;48.400;11.770;2022-11-20T09:16:04;95903.00;;;11.60
14851;BMP180;7517;48.400;11.770;2022-11-20T09:18:33;95899.00;;;11.60
14851;BMP180;7517;48.400;11.770;2022-11-20T09:21:06;95906.00;;;11.60
14851;BMP180;7517;48.400;11.770;2022-11-20T09:23:36;95900.00;;;11.60
14851;BMP180;7517;48.400;11.770;2022-11-20T09:26:04;95907.00;;;11.60
14851;BMP180;7517;48.400;11.770;2022-11-20T09:28:32;95899.00;;;11.70
14851;BMP180;7517;48.400;11.770;2022-11-20T09:31:00;95888.00;;;11.60
14851;BMP180;7517;48.400;11.770;2022-11-20T09:33:27;95895.00;;;11.70
14851;BMP180;7517;48.400;11.770;2022-11-20T09:35:54;95892.00;;;11.70
14851;BMP180;7517;48.400;11.770;2022-11-20T09:38:23;95895.00;;;11.70
14851;BMP180;7517;48.400;11.770;2022-11-20T09:40:57;95887.00;;;11.80
14851;BMP180;7517;48.400;11.770;2022-11-20T09:43:37;95883.00;;;11.80
14851;BMP180;7517;48.400;11.770;2022-11-20T09:46:14;95893.00;;;11.90
14851;BMP180;7517;48.400;11.770;2022-11-20T09:48:59;95890.00;;;11.90
14851;BMP180;7517;48.400;11.770;2022-11-20T09:51:41;95897.00;;;11.90
14851;BMP180;7517;48.400;11.770;2022-11-20T09:54:18;95895.00;;;12.00
14851;BMP180;7517;48.400;11.770;2022-11-20T09:56:53;95896.00;;;12.00
14851;BMP180;7517;48.400;11.770;2022-11-20T09:59:33;95888.00;;;12.00
14851;BMP180;7517;48.400;11.770;2022-11-20T10:02:15;95885.00;;;12.00
14851;BMP180;7517;48.400;11.770;2022-11-20T10:04:49;95886.00;;;12.10
14851;BMP180;7517;48.400;11.770;2022-11-20T10:07:26;95877.00;;;12.10
14851;BMP180;7517;48.400;11.770;2022-11-20T10:09:58;95891.00;;;12.10
14851;BMP180;7517;48.400;11.770;2022-11-20T10:12:35;95888.00;;;12.20
14851;BMP180;7517;48.400;11.770;2022-11-20T10:15:23;95889.00;;;12.20
14851;BMP180;7517;48.400;11.770;2022-11-20T10:18:17;95881.00;;;12.20
14851;BMP180;7517;48.400;11.770;2022-11-20T10:20:54;95881.00;;;12.20
14851;BMP180;7517;48.400;11.770;2022-11-20T10:23:54;95888.00;;;12.20
14851;BMP180;7517;48.400;11.770;2022-11-20T10:26:37;95880.00;;;12.20
14851;BMP180;7517;48.400;11.770;2022-11-20T10:29:13;95886.00;;;12.30
14851;BMP180;7517;48.400;11.770;2022-11-20T10:31:44;95884.00;;;12.30
14851;BMP180;7517;48.400;11.770;2022-11-20T10:34:23;95876.00;;;12.30
14851;BMP180;7517;48.400;11.770;2022-11-20T10:36:59;95879.00;;;12.30
14851;BMP180;7517;48.400;11.770;2022-11-20T10:39:36;95888.00;;;12.40
14851;BMP180;7517;48.400;11.770;2022-11-20T10:42:16;95872.00;;;12.40
14851;BMP180;7517;48.400;11.770;2022-11-20T10:44:52;95876.00;;;12.50
14851;BMP180;7517;48.400;11.770;2022-11-20T10:47:30;95874.00;;;12.50
14851;BMP180;7517;48.400;11.770;2022-11-20T10:50:04;95878.00;;;12.60
14851;BMP180;7517;48.400;11.770;2022-11-20T10:52:41;95880.00;;;12.60
14851;BMP180;7517;48.400;11.770;2022-11-20T10:55:27;95865.00;;;12.70
14851;BMP180;7517;48.400;11.770;2022-11-20T10:58:10;95865.00;;;12.70
14851;BMP180;7517;48.400;11.770;2022-11-20T11:00:37;95861.00;;;12.70
14851;BMP180;7517;48.400;11.770;2022-11-20T11:03:22;95869.00;;;12.80
14851;BMP180;7517;48.400;11.770;2022-11-20T11:05:54;95864.00;;;12.80
14851;BMP180;7517;48.400;11.770;2022-11-20T11:08:28;95872.00;;;12.80
14851;BMP180;7517;48.400;11.770;2022-11-20T11:11:11;95867.00;;;12.80
14851;BMP180;7517;48.400;11.770;2022-11-20T11:13:43;95865.00;;;12.80
14851;BMP180;7517;48.400;11.770;2022-11-20T11:16:21;95868.00;;;12.80
14851;BMP180;7517;48.400;11.770;2022-11-20T11:18:48;95858.00;;;12.80
14851;BMP180;7517;48.400;11.770;2022-11-20T11:21:23;95855.00;;;12.80
14851;BMP180;7517;48.400;11.770;2022-11-20T19:02:25;95676.00;;;9.90
14851;BMP180;7517;48.400;11.770;2022-11-20T19:04:53;95672.00;;;9.90
14851;BMP180;7517;48.400;11.770;2022-11-20T19:07:21;95663.00;;;9.90
14851;BMP180;7517;48.400;11.770;2022-11-20T19:09:52;95665.00;;;9.90
14851;BMP180;7517;48.400;11.770;2022-11-20T19:12:19;95665.00;;;9.90
14851;BMP180;7517;48.400;11.770;2022-11-20T19:14:47;95671.00;;;9.90
14851;BMP180;7517;48.400;11.770;2022-11-20T19:17:15;95669.00;;;9.80
14851;BMP180;7517;48.400;11.770;2022-11-20T19:19:44;95667.00;;;9.80
14851;BMP180;7517;48.400;11.770;2022-11-20T19:22:11;95663.00;;;9.80
14851;BMP180;7517;48.400;11.770;2022-11-20T19:24:38;95658.00;;;9.80
14851;BMP180;7517;48.400;11.770;2022-11-20T19:27:06;95655.00;;;9.80
14851;BMP180;7517;48.400;11.770;2022-11-20T19:29:33;95655.00;;;9.80
14851;BMP180;7517;48.400;11.770;2022-11-20T19:32:01;95637.00;;;9.80
14851;BMP180;7517;48.400;11.770;2022-11-20T19:34:29;95651.00;;;9.80
14851;BMP180;7517;48.400;11.770;2022-11-20T19:36:58;95647.00;;;9.80
14851;BMP180;7517;48.400;11.770;2022-11-20T19:39:26;95640.00;;;9.80
14851;BMP180;7517;48.400;11.770;2022-11-20T19:41:54;95638.00;;;9.80
14851;BMP180;7517;48.400;11.770;2022-11-20T19:44:23;95635.00;;;9.70
14851;BMP180;7517;48.400;11.770;2022-11-20T19:46:50;95645.00;;;9.70
14851;BMP180;7517;48.400;11.770;2022-11-20T19:49:17;95638.00;;;9.70
14851;BMP180;7517;48.400;11.770;2022-11-20T19:51:47;95641.00;;;9.70
14851;BMP180;7517;48.400;11.770;2022-11-20T19:54:18;95634.00;;;9.70
14851;BMP180;7517;48.400;11.770;2022-11-20T19:56:52;95630.00;;;9.80
14851;BMP180;7517;48.400;11.770;2022-11-20T19:59:25;95626.00;;;9.80
14851;BMP180;7517;48.400;11.770;2022-11-20T20:02:44;95617.00;;;9.80
14851;BMP180;7517;48.400;11.770;2022-11-20T20:05:26;95626.00;;;9.80
14851;BMP180;7517;48.400;11.770;2022-11-20T20:07:53;95625.00;;;9.80
14851;BMP180;7517;48.400;11.770;2022-11-20T20:10:22;95628.00;;;9.80
14851;BMP180;7517;48.400;11.770;2022-11-20T20:12:49;95628.00;;;9.80
14851;BMP180;7517;48.400;11.770;2022-11-20T20:15:16;95616.00;;;9.80
14851;BMP180;7517;48.400;11.770;2022-11-20T20:17:43;95621.00;;;9.80
14851;BMP180;7517;48.400;11.770;2022-11-20T20:20:11;95620.00;;;9.80
14851;BMP180;7517;48.400;11.770;2022-11-20T20:22:38;95614.00;;;9.80
14851;BMP180;7517;48.400;11.770;2022-11-20T20:25:06;95604.00;;;9.80
14851;BMP180;7517;48.400;11.770;2022-11-20T20:27:35;95610.00;;;9.80
14851;BMP180;7517;48.400;11.770;2022-11-20T20:30:03;95604.00;;;9.80
14851;BMP180;7517;48.400;11.770;2022-11-20T20:32:31;95605.00;;;9.80
14851;BMP180;7517;48.400;11.770;2022-11-20T20:34:58;95600.00;;;9.80
14851;BMP180;7517;48.400;11.770;2022-11-20T20:37:26;95601.00;;;9.80
14851;BMP180;7517;48.400;11.770;2022-11-20T20:39:53;95599.00;;;9.80
14851;BMP180;7517;48.400;11.770;2022-11-20T20:42:20;95605.00;;;9.80
14851;BMP180;7517;48.400;11.770;2022-11-20T20:44:49;95600.00;;;9.80
14851;BMP180;7517;48.400;11.770;2022-11-20T20:47:37;95596.00;;;9.80
14851;BMP180;7517;48.400;11.770;2022-11-20T20:50:09;95598.00;;;9.80
14851;BMP180;7517;48.400;11.770;2022-11-20T20:52:37;95585.00;;;9.80
14851;BMP180;7517;48.400;11.770;2022-11-20T20:55:05;95580.00;;;9.80
14851;BMP180;7517;48.400;11.770;2022-11-20T20:57:33;95589.00;;;9.80
14851;BMP180;7517;48.400;11.770;2022-11-20T21:00:03;95590.00;;;9.80
14851;BMP180;7517;48.400;11.770;2022-11-20T21:02:30;95590.00;;;9.80
14851;BMP180;7517;48.400;11.770;2022-11-20T21:04:58;95587.00;;;9.80
14851;BMP180;7517;48.400;11.770;2022-11-20T21:07:26;95588.00;;;9.80
14851;BMP180;7517;48.400;11.770;2022-11-20T21:09:54;95584.00;;;9.80
14851;BMP180;7517;48.400;11.770;2022-11-20T21:12:21;95586.00;;;9.80
14851;BMP180;7517;48.400;11.770;2022-11-20T21:14:48;95574.00;;;9.80
14851;BMP180;7517;48.400;11.770;2022-11-20T21:17:17;95581.00;;;9.80
14851;BMP180;7517;48.400;11.770;2022-11-20T21:19:44;95576.00;;;9.80
14851;BMP180;7517;48.400;11.770;2022-11-20T21:22:11;95585.00;;;9.80
14851;BMP180;7517;48.400;11.770;2022-11-20T21:24:37;95576.00;;;9.80
14851;BMP180;7517;48.400;11.770;2022-11-20T21:27:05;95579.00;;;9.80
14851;BMP180;7517;48.400;11.770;2022-11-20T21:29:33;95572.00;;;9.80
14851;BMP180;7517;48.400;11.770;2022-11-20T21:32:00;95573.00;;;9.80
14851;BMP180;7517;48.400;11.770;2022-11-20T21:34:28;95584.00;;;9.80
14851;BMP180;7517;48.400;11.770;2022-11-20T21:36:55;95578.00;;;9.80
14851;BMP180;7517;48.400;11.770;2022-11-20T21:39:23;95580.00;;;9.90
14851;BMP180;7517;48.400;11.770;2022-11-20T21:41:50;95585.00;;;9.90
14851;BMP180;7517;48.400;11.770;2022-11-20T21:44:17;95583.00;;;9.90
14851;BMP180;7517;48.400;11.770;2022-11-20T21:46:45;95595.00;;;9.90
14851;BMP180;7517;48.400;11.770;2022-11-20T21:49:12;95586.00;;;9.90
14851;BMP180;7517;48.400;11.770;2022-11-20T21:51:43;95594.00;;;9.90
14851;BMP180;7517;48.400;11.770;2022-11-20T21:54:11;95599.00;;;9.90
14851;BMP180;7517;48.400;11.770;2022-11-20T21:56:38;95616.00;;;9.90
14851;BMP180;7517;48.400;11.770;2022-11-20T21:59:05;95620.00;;;9.90
14851;BMP180;7517;48.400;11.770;2022-11-20T22:01:33;95624.00;;;9.80
14851;BMP180;7517;48.400;11.770;2022-11-20T22:04:01;95629.00;;;9.80
14851;BMP180;7517;48.400;11.770;2022-11-20T22:06:31;95631.00;;;9.80